Terminal Aerodrome Forecast
Issued by NWS Wilmington, OH

Current Version | Previous Version | Text Only | Print | Product List | Glossary Off
Versions: 1 2 3 4 5 6 7 8 9 10 11 12 13 14 15 16 17 18 19 20 21 22

000
FTUS41 KILN 201900 AAA
TAFDAY
TAF AMD
KDAY 201940Z 2020/2118 25010KT 5SM -SHRA SCT035 BKN060
     FM202000 25010G18KT P6SM VCSH SCT025 BKN060
      TEMPO 2020/2021 BKN025
     FM210100 27008KT P6SM BKN035
     FM210500 31010KT P6SM OVC008
     FM211400 32012KT P6SM BKN015=

USA.gov is the U.S. government's official web portal to all federal, state and local government web resources and services.